Дата Пункты Температура Давл., мм. Влажн., % Ветер Погодные явления
Воздуха Воды Направл. Скорость
20.12.14 10:00 Одесса 6.0 4.0 757 84 Ю-З 2 11 часов
20.12.14 07:00 Одесса 2.0 4.0 757 98 Ю-З 2 08 часов
20.12.14 04:00 Одесса 2.0 4.0 757 98 Ю-З 1 05 часов
20.12.14 01:00 Одесса 3.0 4.0 759 98 Ю-З 2 02 часа
19.12.14 10:00 Одесса 3.0 4.0 759 98 Ю-З 2 23 часа
19.12.14 07:00 Одесса 3.0 4.0 760 100 Ю-З 2 20 часов
19.12.14 04:00 Одесса 2.0 4.0 760 98 Ю-З 3 17 часов
19.12.14 01:00 Одесса 3.0 4.0 760 95 Ю-З 3 14 часов
19.12.14 10:00 Одесса 1.0 3.0 761 100 Ю-З 1 11 часов
19.12.14 07:00 Одесса 1.0 3.0 761 100 Ю-З 1 08 часов
19.12.14 04:00 Одесса 2.0 4.0 761 97 З 1 05 часов
19.12.14 01:00 Одесса 2.0 4.0 761 94 З 1 02 часа
18.12.14 10:00 Одесса 3.0 4.0 760 91 С-З 2 23 часа
18.12.14 07:00 Одесса 4.0 4.0 759 92 С 2 20 часов
18.12.14 04:00 Одесса 5.0 4.0 758 96 С-З 2 17 часов
18.12.14 01:00 Одесса 5.0 4.0 757 96 С 3 14 часов
18.12.14 10:00 Одесса 4.0 4.0 758 99 С 3 11 часов
18.12.14 07:00 Одесса 4.0 4.0 757 97 С 4 08 часов
18.12.14 04:00 Одесса 3.0 4.0 756 97 С 3 05 часов
18.12.14 01:00 Одесса 5.0 4.0 756 96 С-З 4 02 часа
Количество строк
321 322 323 324 325 326 327 328 329 330
Page 328 of 364